createdAt,value
2022-10-06T00:01:05.960Z,13.91
2022-10-06T00:03:34.550Z,13.88
2022-10-06T00:06:04.497Z,13.87
2022-10-06T00:08:35.742Z,13.84
2022-10-06T00:11:04.124Z,13.81
2022-10-06T00:13:33.079Z,13.79
2022-10-06T00:16:02.158Z,13.76
2022-10-06T00:18:31.274Z,13.75
2022-10-06T00:21:04.093Z,13.73
2022-10-06T00:23:34.303Z,13.70
2022-10-06T00:26:02.733Z,13.69
2022-10-06T00:28:31.654Z,13.67
2022-10-06T00:31:02.865Z,13.65
2022-10-06T00:33:31.338Z,13.63
2022-10-06T00:36:00.783Z,13.62
2022-10-06T00:38:29.974Z,13.62
2022-10-06T00:40:59.831Z,13.58
2022-10-06T00:43:47.250Z,13.55
2022-10-06T00:46:21.460Z,13.53
2022-10-06T00:48:54.127Z,13.51
2022-10-06T00:51:23.183Z,13.50
2022-10-06T00:53:52.111Z,13.49
2022-10-06T00:56:21.809Z,13.47
2022-10-06T00:58:50.350Z,13.46
2022-10-06T01:01:18.864Z,13.44
2022-10-06T01:03:52.681Z,13.42
2022-10-06T01:06:21.190Z,13.41
2022-10-06T01:08:49.961Z,13.39
2022-10-06T01:11:18.280Z,13.38
2022-10-06T01:13:48.031Z,13.39
2022-10-06T01:16:20.871Z,13.37
2022-10-06T01:18:49.821Z,13.36
2022-10-06T01:21:26.129Z,13.35
2022-10-06T01:23:57.088Z,13.34
2022-10-06T01:26:28.076Z,13.34
2022-10-06T01:28:56.857Z,13.33
2022-10-06T01:31:27.654Z,13.33
2022-10-06T01:33:57.049Z,13.33
2022-10-06T01:36:25.664Z,13.33
2022-10-06T01:38:55.353Z,13.33
2022-10-06T01:41:24.810Z,13.34
2022-10-06T01:43:53.102Z,13.32
2022-10-06T01:46:22.252Z,13.31
2022-10-06T01:48:51.193Z,13.31
2022-10-06T01:51:20.087Z,13.30
2022-10-06T01:53:48.496Z,13.29
2022-10-06T01:56:18.819Z,13.30
2022-10-06T01:58:47.662Z,13.29
2022-10-06T02:01:16.472Z,13.25
2022-10-06T02:03:44.936Z,13.25
2022-10-06T02:06:13.391Z,13.23
2022-10-06T02:08:44.149Z,13.21
2022-10-06T02:11:13.057Z,13.20
2022-10-06T02:13:46.035Z,13.17
2022-10-06T02:16:14.733Z,13.16
2022-10-06T02:18:44.432Z,13.15
2022-10-06T02:21:16.762Z,13.13
2022-10-06T02:23:45.355Z,13.13
2022-10-06T02:26:14.486Z,13.11
2022-10-06T02:28:44.694Z,13.09
2022-10-06T02:31:16.167Z,13.09
2022-10-06T02:33:44.908Z,13.09
2022-10-06T02:36:15.402Z,13.10
2022-10-06T02:38:44.641Z,13.10
2022-10-06T02:41:13.027Z,13.10
2022-10-06T02:43:41.485Z,13.10
2022-10-06T02:46:13.024Z,13.12
2022-10-06T02:48:48.250Z,13.12
2022-10-06T02:51:18.661Z,13.12
2022-10-06T02:53:49.059Z,13.12
2022-10-06T02:56:21.457Z,13.12
2022-10-06T02:58:51.607Z,13.14
2022-10-06T03:01:32.115Z,13.15
2022-10-06T03:04:07.198Z,13.15
2022-10-06T03:06:36.589Z,13.14
2022-10-06T03:09:10.808Z,13.14
2022-10-06T03:11:43.354Z,13.14
2022-10-06T03:14:19.237Z,13.13
2022-10-06T03:16:51.469Z,13.12
2022-10-06T03:19:25.573Z,13.10
2022-10-06T03:21:54.598Z,13.07
2022-10-06T03:24:27.342Z,13.07
2022-10-06T03:26:59.063Z,13.06
2022-10-06T03:29:30.893Z,13.04
2022-10-06T03:31:59.302Z,13.02
2022-10-06T03:34:29.193Z,13.00
2022-10-06T03:36:59.414Z,12.99
2022-10-06T03:39:29.649Z,12.97
2022-10-06T03:41:57.981Z,12.95
2022-10-06T03:44:27.088Z,12.92
2022-10-06T03:46:55.573Z,12.90
2022-10-06T03:49:23.921Z,12.87
2022-10-06T03:51:54.889Z,12.84
2022-10-06T03:54:27.706Z,12.82
2022-10-06T03:56:56.715Z,12.78
2022-10-06T03:59:26.902Z,12.74
2022-10-06T04:01:56.088Z,12.72
2022-10-06T04:04:31.618Z,12.71
2022-10-06T04:07:05.020Z,12.69
2022-10-06T04:09:33.357Z,12.67
2022-10-06T04:12:02.766Z,12.64
2022-10-06T04:14:33.356Z,12.62
2022-10-06T04:17:02.109Z,12.59
2022-10-06T04:19:33.594Z,12.56
2022-10-06T04:22:01.996Z,12.54
2022-10-06T04:24:32.813Z,12.52
2022-10-06T04:27:15.067Z,12.49
2022-10-06T04:29:45.496Z,12.46
2022-10-06T04:32:15.816Z,12.43
2022-10-06T04:34:44.144Z,12.41
2022-10-06T04:37:13.055Z,12.39
2022-10-06T04:39:43.854Z,12.37
2022-10-06T04:42:12.184Z,12.34
2022-10-06T04:44:40.630Z,12.32
2022-10-06T04:47:08.949Z,12.28
2022-10-06T04:49:37.297Z,12.28
2022-10-06T04:52:06.386Z,12.25
2022-10-06T04:54:37.619Z,12.21
2022-10-06T04:57:08.631Z,12.19
2022-10-06T04:59:54.970Z,12.16
2022-10-06T05:02:24.525Z,12.13
2022-10-06T05:04:56.009Z,12.09
2022-10-06T05:07:25.141Z,12.06
2022-10-06T05:09:55.585Z,12.03
2022-10-06T05:12:25.479Z,12.01
2022-10-06T05:14:53.847Z,12.01
2022-10-06T05:17:22.162Z,11.97
2022-10-06T05:19:50.523Z,11.96
2022-10-06T05:22:18.818Z,11.93
2022-10-06T05:24:47.281Z,11.91
2022-10-06T05:27:15.652Z,11.87
2022-10-06T05:29:46.191Z,11.85
2022-10-06T05:32:14.485Z,11.79
2022-10-06T05:34:43.529Z,11.77
2022-10-06T05:37:12.314Z,11.75
2022-10-06T05:39:41.048Z,11.73
2022-10-06T05:42:09.418Z,11.72
2022-10-06T05:44:37.737Z,11.69
2022-10-06T05:47:11.707Z,11.68
2022-10-06T05:49:40.017Z,11.64
2022-10-06T05:52:08.351Z,11.61
2022-10-06T05:54:37.989Z,11.59
2022-10-06T05:57:07.906Z,11.57
2022-10-06T05:59:36.836Z,11.54
2022-10-06T06:02:06.388Z,11.51
2022-10-06T06:04:45.485Z,11.50
2022-10-06T06:07:14.587Z,11.48
2022-10-06T06:09:44.983Z,11.47
2022-10-06T06:12:14.247Z,11.43
2022-10-06T06:15:03.502Z,11.41
2022-10-06T06:17:37.635Z,11.40
2022-10-06T06:20:09.583Z,11.39
2022-10-06T06:22:38.775Z,11.36
2022-10-06T06:25:08.823Z,11.36
2022-10-06T06:27:37.105Z,11.36
2022-10-06T06:30:07.656Z,11.36
2022-10-06T06:32:36.914Z,11.35
2022-10-06T06:35:06.308Z,11.36
2022-10-06T06:37:36.058Z,11.37
2022-10-06T06:40:04.775Z,11.36
2022-10-06T06:42:37.355Z,11.37
2022-10-06T06:45:25.857Z,11.38
2022-10-06T06:48:02.300Z,11.39
2022-10-06T06:50:31.674Z,11.42
2022-10-06T06:53:02.799Z,11.45
2022-10-06T06:55:33.713Z,11.47
2022-10-06T06:58:02.233Z,11.47
2022-10-06T07:00:35.929Z,11.51
2022-10-06T07:03:06.074Z,11.52
2022-10-06T07:05:35.432Z,11.54
2022-10-06T07:08:05.328Z,11.57
2022-10-06T07:10:35.339Z,11.60
2022-10-06T07:13:04.458Z,11.63
2022-10-06T07:15:50.247Z,11.65
2022-10-06T07:18:35.851Z,11.69
2022-10-06T07:21:27.740Z,11.72
2022-10-06T07:24:15.389Z,11.77
2022-10-06T07:26:43.893Z,11.79
2022-10-06T07:29:12.848Z,11.84
2022-10-06T07:31:43.519Z,11.87
2022-10-06T07:34:12.068Z,11.91
2022-10-06T07:36:40.547Z,11.94
2022-10-06T07:39:11.161Z,11.98
2022-10-06T07:41:39.909Z,12.02
2022-10-06T07:44:08.750Z,12.05
2022-10-06T07:46:38.866Z,12.08
2022-10-06T07:49:14.666Z,12.13
2022-10-06T07:51:43.183Z,12.16
2022-10-06T07:54:12.947Z,12.20
2022-10-06T07:56:54.372Z,12.24
2022-10-06T07:59:22.853Z,12.28
2022-10-06T08:01:52.525Z,12.33
2022-10-06T08:04:20.905Z,12.37
2022-10-06T08:06:49.489Z,12.40
2022-10-06T08:09:19.864Z,12.45
2022-10-06T08:11:48.802Z,12.49
2022-10-06T08:14:17.167Z,12.54
2022-10-06T08:16:45.722Z,12.58
2022-10-06T08:19:14.571Z,12.63
2022-10-06T08:21:43.070Z,12.68
2022-10-06T08:24:11.827Z,12.72
2022-10-06T08:26:43.876Z,12.77
2022-10-06T08:29:12.233Z,12.81
2022-10-06T08:31:40.622Z,12.85
2022-10-06T08:34:11.947Z,12.89
2022-10-06T08:36:45.024Z,12.94
2022-10-06T08:39:20.724Z,12.99
2022-10-06T08:41:53.138Z,13.03
2022-10-06T08:44:30.546Z,13.07
2022-10-06T08:47:02.181Z,13.13
2022-10-06T08:49:38.421Z,13.19
2022-10-06T08:52:21.152Z,13.26
2022-10-06T08:54:58.439Z,13.30
2022-10-06T08:57:37.883Z,13.36
2022-10-06T09:00:12.437Z,13.41
2022-10-06T09:02:43.302Z,13.46
2022-10-06T09:05:16.043Z,13.51
2022-10-06T09:07:58.175Z,13.56
2022-10-06T09:10:42.509Z,13.62
2022-10-06T09:13:21.630Z,13.70
2022-10-06T09:15:55.151Z,13.75
2022-10-06T09:18:49.400Z,13.80
2022-10-06T09:21:30.248Z,13.86
2022-10-06T09:24:06.235Z,13.91
2022-10-06T09:26:36.774Z,13.96
2022-10-06T09:29:06.419Z,14.01
2022-10-06T09:31:38.812Z,14.07
2022-10-06T09:34:19.810Z,14.12
2022-10-06T09:37:02.955Z,14.16
2022-10-06T09:39:36.484Z,14.20
2022-10-06T09:42:14.696Z,14.25
2022-10-06T09:44:58.220Z,14.30
2022-10-06T09:47:44.756Z,14.37
2022-10-06T09:50:22.901Z,14.42
2022-10-06T09:53:11.998Z,14.47
2022-10-06T09:55:53.687Z,14.50
2022-10-06T09:58:29.475Z,14.54
2022-10-06T10:01:01.122Z,14.56
2022-10-06T10:03:51.406Z,14.60
2022-10-06T10:06:32.513Z,14.66
2022-10-06T10:09:22.891Z,14.74
2022-10-06T10:12:19.878Z,14.82
2022-10-06T10:14:48.401Z,14.89
2022-10-06T10:17:21.185Z,14.97
2022-10-06T10:19:54.195Z,15.05
2022-10-06T10:22:26.234Z,15.13
2022-10-06T10:25:05.362Z,15.12
2022-10-06T10:27:42.631Z,15.08
2022-10-06T10:30:14.039Z,15.11
2022-10-06T10:32:57.524Z,15.16
2022-10-06T10:35:28.288Z,15.20
2022-10-06T10:38:02.775Z,15.26
2022-10-06T10:40:33.800Z,15.30
2022-10-06T10:43:09.993Z,15.34
2022-10-06T10:45:44.874Z,15.46
2022-10-06T10:48:19.267Z,15.55
2022-10-06T10:50:56.617Z,15.67
2022-10-06T10:53:31.540Z,15.72
2022-10-06T10:56:01.498Z,15.80
2022-10-06T10:58:35.352Z,15.88
2022-10-06T11:01:09.810Z,15.98
2022-10-06T11:03:39.387Z,16.07
2022-10-06T11:06:34.839Z,16.15
2022-10-06T11:09:07.758Z,16.27
2022-10-06T11:11:52.337Z,16.32
2022-10-06T11:14:35.316Z,16.40
2022-10-06T11:17:16.554Z,16.49
2022-10-06T11:19:53.172Z,16.55
2022-10-06T11:22:32.419Z,16.61
2022-10-06T11:25:13.493Z,16.69
2022-10-06T11:27:49.988Z,16.72
2022-10-06T11:30:20.415Z,16.81
2022-10-06T11:33:01.391Z,16.87
2022-10-06T11:35:38.133Z,16.93
2022-10-06T11:38:14.525Z,16.98
2022-10-06T11:40:49.871Z,16.97
2022-10-06T11:43:35.011Z,17.02
2022-10-06T11:46:11.025Z,17.11
2022-10-06T11:48:39.483Z,17.24
2022-10-06T11:51:30.406Z,17.37
2022-10-06T11:53:59.700Z,17.43
2022-10-06T11:56:46.550Z,17.50
2022-10-06T11:59:26.954Z,17.55
2022-10-06T12:01:57.812Z,17.54
2022-10-06T12:04:27.300Z,17.59
2022-10-06T12:07:01.906Z,17.68
2022-10-06T12:09:52.760Z,17.79
2022-10-06T12:13:05.365Z,17.83
2022-10-06T12:19:21.383Z,18.09
2022-10-06T12:22:01.857Z,18.21
2022-10-06T12:24:41.261Z,18.24
2022-10-06T12:27:28.790Z,18.29
2022-10-06T12:30:03.964Z,18.29
2022-10-06T12:32:46.288Z,18.37
2022-10-06T12:35:31.330Z,18.37
2022-10-06T12:38:04.731Z,18.32
2022-10-06T12:40:57.037Z,18.42
2022-10-06T12:43:58.441Z,18.54
2022-10-06T12:46:37.360Z,18.71
2022-10-06T12:49:39.056Z,18.83
2022-10-06T12:52:15.113Z,18.81
2022-10-06T12:54:53.431Z,18.93
2022-10-06T12:57:23.320Z,19.03
2022-10-06T12:59:51.586Z,19.07
2022-10-06T13:02:22.091Z,19.19
2022-10-06T13:04:54.206Z,19.33
2022-10-06T13:07:24.913Z,19.39
2022-10-06T13:10:10.839Z,19.34
2022-10-06T13:12:39.957Z,19.37
2022-10-06T13:15:17.502Z,19.51
2022-10-06T13:17:49.530Z,19.65
2022-10-06T13:20:21.753Z,19.79
2022-10-06T13:22:57.393Z,19.95
2022-10-06T13:25:32.134Z,19.99
2022-10-06T13:28:02.199Z,20.06
2022-10-06T13:30:33.843Z,20.20
2022-10-06T13:33:04.744Z,20.24
2022-10-06T13:35:33.054Z,20.15
2022-10-06T13:38:03.936Z,20.16
2022-10-06T13:40:44.875Z,20.26
2022-10-06T13:43:20.125Z,20.42
2022-10-06T13:45:49.387Z,20.46
2022-10-06T13:48:21.789Z,20.57
2022-10-06T13:50:52.964Z,20.59
2022-10-06T13:53:31.101Z,20.71
2022-10-06T13:56:01.059Z,20.69
2022-10-06T13:58:31.179Z,20.55
2022-10-06T14:01:01.880Z,20.35
2022-10-06T14:06:13.070Z,20.57
2022-10-06T14:08:41.503Z,20.65
2022-10-06T14:11:11.800Z,20.70
2022-10-06T14:13:48.856Z,20.77
2022-10-06T14:19:34.035Z,20.87
2022-10-06T14:22:06.499Z,20.96
2022-10-06T14:24:37.261Z,20.94
2022-10-06T14:27:07.806Z,21.01
2022-10-06T14:29:37.895Z,21.10
2022-10-06T14:32:11.462Z,20.95
2022-10-06T14:34:40.599Z,20.97
2022-10-06T14:37:15.224Z,20.97
2022-10-06T14:39:44.895Z,20.97
2022-10-06T14:42:15.459Z,21.04
2022-10-06T14:44:44.827Z,21.10
2022-10-06T14:47:14.171Z,21.13
2022-10-06T14:49:44.855Z,21.16
2022-10-06T14:52:13.175Z,21.26
2022-10-06T14:54:42.832Z,21.11
2022-10-06T14:57:11.154Z,21.17
2022-10-06T14:59:40.860Z,21.20
2022-10-06T15:02:10.815Z,21.29
2022-10-06T15:04:39.122Z,21.22
2022-10-06T15:07:25.220Z,21.29
2022-10-06T15:09:53.553Z,21.39
2022-10-06T15:12:21.945Z,21.52
2022-10-06T15:14:51.607Z,21.62
2022-10-06T15:17:19.935Z,21.71
2022-10-06T15:19:48.504Z,21.76
2022-10-06T15:22:16.969Z,21.74
2022-10-06T15:24:50.214Z,21.73
2022-10-06T15:27:35.854Z,21.67
2022-10-06T15:30:06.519Z,21.73
2022-10-06T15:32:34.860Z,21.71
2022-10-06T15:35:03.280Z,21.74
2022-10-06T15:37:31.754Z,21.79
2022-10-06T15:40:01.438Z,21.75
2022-10-06T15:42:29.816Z,21.70
2022-10-06T15:44:58.303Z,21.60
2022-10-06T15:47:29.207Z,21.45
2022-10-06T15:49:57.628Z,21.29
2022-10-06T15:52:26.025Z,21.10
2022-10-06T15:54:54.312Z,20.87
2022-10-06T15:57:25.223Z,20.72
2022-10-06T15:59:53.565Z,20.54
2022-10-06T16:02:22.486Z,20.34
2022-10-06T16:05:17.602Z,20.19
2022-10-06T16:07:45.961Z,19.95
2022-10-06T16:10:14.510Z,19.75
2022-10-06T16:12:42.825Z,19.57
2022-10-06T16:15:11.804Z,19.45
2022-10-06T16:17:40.102Z,19.31
2022-10-06T16:20:11.489Z,19.16
2022-10-06T16:22:40.235Z,19.06
2022-10-06T16:25:09.517Z,18.88
2022-10-06T16:27:39.328Z,18.69
2022-10-06T16:30:09.360Z,18.54
2022-10-06T16:32:38.032Z,18.44
2022-10-06T16:35:07.617Z,18.33
2022-10-06T16:37:37.455Z,18.21
2022-10-06T16:40:06.692Z,18.13
2022-10-06T16:42:35.041Z,18.02
2022-10-06T16:45:03.402Z,17.89
2022-10-06T16:47:31.724Z,17.79
2022-10-06T16:50:00.026Z,17.65
2022-10-06T16:52:28.355Z,17.54
2022-10-06T16:54:58.133Z,17.39
2022-10-06T16:57:26.453Z,17.25
2022-10-06T16:59:54.828Z,17.14
2022-10-06T17:02:23.255Z,17.02
2022-10-06T17:04:51.673Z,16.92
2022-10-06T17:07:19.971Z,16.80
2022-10-06T17:10:08.535Z,16.69
2022-10-06T17:12:38.461Z,16.58
2022-10-06T17:15:07.788Z,16.44
2022-10-06T17:17:36.374Z,16.31
2022-10-06T17:20:05.472Z,16.16
2022-10-06T17:22:34.042Z,16.03
2022-10-06T17:25:02.600Z,15.92
2022-10-06T17:27:37.161Z,15.80
2022-10-06T17:30:10.799Z,15.67
2022-10-06T17:32:39.296Z,15.56
2022-10-06T17:35:08.776Z,15.43
2022-10-06T17:37:40.278Z,15.30
2022-10-06T17:40:09.445Z,15.17
2022-10-06T17:42:38.113Z,15.07
2022-10-06T17:45:07.301Z,14.95
2022-10-06T17:47:36.963Z,14.82
2022-10-06T17:50:06.179Z,14.72
2022-10-06T17:52:35.448Z,14.61
2022-10-06T17:55:03.893Z,14.53
2022-10-06T17:57:33.506Z,14.44
2022-10-06T18:00:01.824Z,14.38
2022-10-06T18:02:41.800Z,14.27
2022-10-06T18:05:10.711Z,14.18
2022-10-06T18:07:39.878Z,14.10
2022-10-06T18:10:26.555Z,14.01
2022-10-06T18:12:54.820Z,13.93
2022-10-06T18:15:23.186Z,13.84
2022-10-06T18:17:53.306Z,13.75
2022-10-06T18:20:21.949Z,13.67
2022-10-06T18:22:50.317Z,13.57
2022-10-06T18:25:21.028Z,13.50
2022-10-06T18:27:53.164Z,13.44
2022-10-06T18:30:23.734Z,13.37
2022-10-06T18:35:29.901Z,13.30
2022-10-06T18:38:38.901Z,13.19
2022-10-06T18:41:09.560Z,13.12
2022-10-06T18:43:37.949Z,13.07
2022-10-06T18:46:29.899Z,13.03
2022-10-06T18:49:03.086Z,12.98
2022-10-06T18:51:33.715Z,12.93
2022-10-06T18:54:03.619Z,12.89
2022-10-06T18:56:34.080Z,12.83
2022-10-06T18:59:04.827Z,12.81
2022-10-06T19:01:33.991Z,12.77
2022-10-06T19:04:05.413Z,12.73
2022-10-06T19:06:34.177Z,12.68
2022-10-06T19:09:03.006Z,12.62
2022-10-06T19:11:48.606Z,12.56
2022-10-06T19:14:19.345Z,12.50
2022-10-06T19:16:48.908Z,12.47
2022-10-06T19:19:21.890Z,12.42
2022-10-06T19:21:52.352Z,12.37
2022-10-06T19:24:25.363Z,12.33
2022-10-06T19:26:56.319Z,12.28
2022-10-06T19:29:26.894Z,12.22
2022-10-06T19:31:57.519Z,12.17
2022-10-06T19:34:27.323Z,12.15
2022-10-06T19:36:57.912Z,12.10
2022-10-06T19:39:30.553Z,12.05
2022-10-06T19:42:17.033Z,12.01
2022-10-06T19:44:45.531Z,11.96
2022-10-06T19:47:15.890Z,11.91
2022-10-06T19:49:45.878Z,11.89
2022-10-06T19:52:14.651Z,11.84
2022-10-06T19:54:43.407Z,11.81
2022-10-06T19:57:12.367Z,11.77
2022-10-06T19:59:41.101Z,11.73
2022-10-06T20:02:11.543Z,11.68
2022-10-06T20:04:40.095Z,11.64
2022-10-06T20:07:10.534Z,11.61
2022-10-06T20:09:38.908Z,11.60
2022-10-06T20:12:07.241Z,11.55
2022-10-06T20:14:36.350Z,11.50
2022-10-06T20:17:04.935Z,11.44
2022-10-06T20:19:33.333Z,11.39
2022-10-06T20:22:04.349Z,11.35
2022-10-06T20:24:34.119Z,11.31
2022-10-06T20:27:02.437Z,11.28
2022-10-06T20:29:31.507Z,11.24
2022-10-06T20:31:59.885Z,11.20
2022-10-06T20:34:31.779Z,11.15
2022-10-06T20:37:02.318Z,11.12
2022-10-06T20:39:49.573Z,11.07
2022-10-06T20:42:20.911Z,11.03
2022-10-06T20:44:49.584Z,10.99
2022-10-06T20:47:18.029Z,10.97
2022-10-06T20:49:46.424Z,10.93
2022-10-06T20:52:15.097Z,10.91
2022-10-06T20:54:44.190Z,10.88
2022-10-06T20:57:13.009Z,10.86
2022-10-06T20:59:45.165Z,10.84
2022-10-06T21:02:13.675Z,10.80
2022-10-06T21:04:43.314Z,10.76
2022-10-06T21:07:11.781Z,10.75
2022-10-06T21:09:40.204Z,10.72
2022-10-06T21:12:08.746Z,10.67
2022-10-06T21:14:37.471Z,10.63
2022-10-06T21:17:07.168Z,10.57
2022-10-06T21:19:37.882Z,10.54
2022-10-06T21:22:06.896Z,10.50
2022-10-06T21:24:35.284Z,10.47
2022-10-06T21:27:03.612Z,10.43
2022-10-06T21:29:31.941Z,10.40
2022-10-06T21:32:00.407Z,10.34
2022-10-06T21:34:30.223Z,10.32
2022-10-06T21:36:58.588Z,10.28
2022-10-06T21:39:27.086Z,10.26
2022-10-06T21:41:55.531Z,10.25
2022-10-06T21:44:24.056Z,10.22
2022-10-06T21:46:53.914Z,10.21
2022-10-06T21:49:23.810Z,10.20
2022-10-06T21:51:55.539Z,10.18
2022-10-06T21:54:24.448Z,10.16
2022-10-06T21:56:52.924Z,10.14
2022-10-06T21:59:21.376Z,10.12
2022-10-06T22:01:50.564Z,10.11
2022-10-06T22:04:18.965Z,10.09
2022-10-06T22:06:50.013Z,10.08
2022-10-06T22:09:21.300Z,10.07
2022-10-06T22:11:50.198Z,10.06
2022-10-06T22:14:20.286Z,10.05
2022-10-06T22:16:48.678Z,10.04
2022-10-06T22:19:17.759Z,10.02
2022-10-06T22:21:48.037Z,10.00
2022-10-06T22:24:18.556Z,9.98
2022-10-06T22:26:49.559Z,9.97
2022-10-06T22:29:19.507Z,9.94
2022-10-06T22:31:48.967Z,9.93
2022-10-06T22:34:19.235Z,9.88
2022-10-06T22:36:47.604Z,9.89
2022-10-06T22:39:16.263Z,9.88
2022-10-06T22:41:46.283Z,9.86
2022-10-06T22:44:16.009Z,9.85
2022-10-06T22:46:44.498Z,9.87
2022-10-06T22:49:13.113Z,9.85
2022-10-06T22:51:43.686Z,9.85
2022-10-06T22:54:18.519Z,9.85
2022-10-06T22:56:46.838Z,9.85
2022-10-06T22:59:16.532Z,9.84
2022-10-06T23:01:44.895Z,9.83
2022-10-06T23:04:13.303Z,9.81
2022-10-06T23:06:41.653Z,9.79
2022-10-06T23:09:09.924Z,9.77
2022-10-06T23:11:38.310Z,9.76
2022-10-06T23:14:06.609Z,9.74
2022-10-06T23:16:36.345Z,9.70
2022-10-06T23:19:05.051Z,9.68
2022-10-06T23:21:33.337Z,9.67
2022-10-06T23:24:01.847Z,9.65
2022-10-06T23:26:30.233Z,9.63
2022-10-06T23:29:00.024Z,9.62
2022-10-06T23:31:29.407Z,9.60
2022-10-06T23:33:59.354Z,9.59
2022-10-06T23:36:27.659Z,9.59
2022-10-06T23:38:56.235Z,9.57
2022-10-06T23:41:24.515Z,9.58
2022-10-06T23:43:53.031Z,9.57
2022-10-06T23:46:21.407Z,9.57
2022-10-06T23:48:49.893Z,9.54
2022-10-06T23:51:19.603Z,9.52
2022-10-06T23:53:48.267Z,9.53
2022-10-06T23:56:18.792Z,9.52
2022-10-06T23:58:47.175Z,9.52
